sensor_id;sensor_type;location;lat;lon;timestamp;pressure;altitude;pressure_sealevel;temperature;humidity
9289;BME280;4683;50.864;12.086;2022-12-29T00:01:16;98430.47;;;10.28;100.00
9289;BME280;4683;50.864;12.086;2022-12-29T00:03:47;98435.09;;;10.26;100.00
9289;BME280;4683;50.864;12.086;2022-12-29T00:06:17;98435.41;;;10.16;100.00
9289;BME280;4683;50.864;12.086;2022-12-29T00:08:46;98433.41;;;10.19;100.00
9289;BME280;4683;50.864;12.086;2022-12-29T00:11:17;98440.50;;;10.18;100.00
9289;BME280;4683;50.864;12.086;2022-12-29T00:13:47;98440.66;;;10.10;100.00
9289;BME280;4683;50.864;12.086;2022-12-29T00:16:34;98445.13;;;10.09;100.00
9289;BME280;4683;50.864;12.086;2022-12-29T00:19:12;98443.91;;;10.12;100.00
9289;BME280;4683;50.864;12.086;2022-12-29T00:21:54;98433.13;;;10.07;100.00
9289;BME280;4683;50.864;12.086;2022-12-29T00:24:39;98435.38;;;10.10;100.00
9289;BME280;4683;50.864;12.086;2022-12-29T00:27:30;98416.03;;;9.96;100.00
9289;BME280;4683;50.864;12.086;2022-12-29T00:30:18;98433.22;;;10.20;100.00
9289;BME280;4683;50.864;12.086;2022-12-29T00:33:10;98437.66;;;10.13;100.00
9289;BME280;4683;50.864;12.086;2022-12-29T00:36:02;98423.88;;;10.18;100.00
9289;BME280;4683;50.864;12.086;2022-12-29T00:38:37;98419.00;;;10.21;100.00
9289;BME280;4683;50.864;12.086;2022-12-29T00:41:23;98416.94;;;10.10;100.00
9289;BME280;4683;50.864;12.086;2022-12-29T00:44:12;98414.91;;;10.12;100.00
9289;BME280;4683;50.864;12.086;2022-12-29T00:46:43;98408.59;;;10.06;100.00
9289;BME280;4683;50.864;12.086;2022-12-29T00:49:13;98411.66;;;10.10;100.00
9289;BME280;4683;50.864;12.086;2022-12-29T00:52:03;98419.34;;;10.05;100.00
9289;BME280;4683;50.864;12.086;2022-12-29T00:54:36;98425.78;;;10.02;100.00
9289;BME280;4683;50.864;12.086;2022-12-29T00:57:07;98422.06;;;10.18;100.00
9289;BME280;4683;50.864;12.086;2022-12-29T00:59:36;98416.56;;;10.13;100.00
9289;BME280;4683;50.864;12.086;2022-12-29T01:02:06;98421.41;;;10.09;100.00
9289;BME280;4683;50.864;12.086;2022-12-29T01:04:36;98407.22;;;10.17;100.00
9289;BME280;4683;50.864;12.086;2022-12-29T01:07:10;98409.56;;;9.99;100.00
9289;BME280;4683;50.864;12.086;2022-12-29T01:09:39;98414.44;;;10.02;100.00
9289;BME280;4683;50.864;12.086;2022-12-29T01:12:30;98395.72;;;10.18;100.00
9289;BME280;4683;50.864;12.086;2022-12-29T01:15:14;98396.06;;;10.08;100.00
9289;BME280;4683;50.864;12.086;2022-12-29T01:17:54;98394.81;;;10.04;100.00
9289;BME280;4683;50.864;12.086;2022-12-29T01:20:23;98403.53;;;10.05;100.00
9289;BME280;4683;50.864;12.086;2022-12-29T01:22:56;98401.91;;;10.04;100.00
9289;BME280;4683;50.864;12.086;2022-12-29T01:25:28;98406.31;;;9.97;100.00
9289;BME280;4683;50.864;12.086;2022-12-29T01:27:58;98385.22;;;9.97;100.00
9289;BME280;4683;50.864;12.086;2022-12-29T01:30:30;98396.50;;;9.84;100.00
9289;BME280;4683;50.864;12.086;2022-12-29T01:33:00;98388.25;;;9.94;100.00
9289;BME280;4683;50.864;12.086;2022-12-29T01:35:28;98396.56;;;9.90;100.00
9289;BME280;4683;50.864;12.086;2022-12-29T01:38:04;98401.38;;;9.87;100.00
9289;BME280;4683;50.864;12.086;2022-12-29T01:40:35;98391.69;;;9.94;100.00
9289;BME280;4683;50.864;12.086;2022-12-29T01:43:49;98407.84;;;9.84;100.00
9289;BME280;4683;50.864;12.086;2022-12-29T01:46:25;98395.31;;;9.86;100.00
9289;BME280;4683;50.864;12.086;2022-12-29T01:49:03;98396.16;;;9.94;100.00
9289;BME280;4683;50.864;12.086;2022-12-29T01:51:38;98394.53;;;9.93;100.00
9289;BME280;4683;50.864;12.086;2022-12-29T01:54:13;98400.25;;;10.03;100.00
9289;BME280;4683;50.864;12.086;2022-12-29T01:56:47;98390.72;;;9.95;100.00
9289;BME280;4683;50.864;12.086;2022-12-29T01:59:22;98391.91;;;9.93;100.00
9289;BME280;4683;50.864;12.086;2022-12-29T02:01:52;98399.06;;;10.05;100.00
9289;BME280;4683;50.864;12.086;2022-12-29T02:04:21;98399.59;;;9.94;100.00
9289;BME280;4683;50.864;12.086;2022-12-29T02:06:58;98397.84;;;10.08;100.00
9289;BME280;4683;50.864;12.086;2022-12-29T02:09:35;98396.09;;;10.15;100.00
9289;BME280;4683;50.864;12.086;2022-12-29T02:12:13;98405.19;;;10.12;100.00
9289;BME280;4683;50.864;12.086;2022-12-29T02:14:45;98409.22;;;10.08;100.00
9289;BME280;4683;50.864;12.086;2022-12-29T02:17:34;98406.09;;;9.98;100.00
9289;BME280;4683;50.864;12.086;2022-12-29T02:28:50;98389.34;;;10.06;100.00
9289;BME280;4683;50.864;12.086;2022-12-29T02:31:33;98382.44;;;10.05;100.00
9289;BME280;4683;50.864;12.086;2022-12-29T02:34:18;98389.72;;;10.03;100.00
9289;BME280;4683;50.864;12.086;2022-12-29T02:37:18;98380.84;;;10.10;100.00
9289;BME280;4683;50.864;12.086;2022-12-29T02:40:06;98383.25;;;10.05;100.00
9289;BME280;4683;50.864;12.086;2022-12-29T02:43:02;98379.63;;;10.06;100.00
9289;BME280;4683;50.864;12.086;2022-12-29T02:45:57;98385.31;;;10.10;100.00
9289;BME280;4683;50.864;12.086;2022-12-29T02:48:55;98367.03;;;10.02;100.00
9289;BME280;4683;50.864;12.086;2022-12-29T02:51:54;98365.84;;;10.11;100.00
9289;BME280;4683;50.864;12.086;2022-12-29T02:54:47;98368.25;;;10.06;100.00
9289;BME280;4683;50.864;12.086;2022-12-29T02:57:32;98361.97;;;10.07;100.00
9289;BME280;4683;50.864;12.086;2022-12-29T03:00:04;98355.69;;;10.08;100.00
9289;BME280;4683;50.864;12.086;2022-12-29T03:03:16;98360.50;;;9.98;100.00
9289;BME280;4683;50.864;12.086;2022-12-29T03:06:15;98351.59;;;9.99;100.00
9289;BME280;4683;50.864;12.086;2022-12-29T03:08:58;98352.03;;;10.02;100.00
9289;BME280;4683;50.864;12.086;2022-12-29T03:11:41;98353.69;;;10.10;100.00
9289;BME280;4683;50.864;12.086;2022-12-29T03:14:39;98347.84;;;10.21;100.00
9289;BME280;4683;50.864;12.086;2022-12-29T03:17:39;98350.44;;;10.08;100.00
9289;BME280;4683;50.864;12.086;2022-12-29T03:20:12;98350.69;;;10.13;100.00
9289;BME280;4683;50.864;12.086;2022-12-29T03:22:46;98346.63;;;10.17;100.00
9289;BME280;4683;50.864;12.086;2022-12-29T03:25:22;98347.63;;;10.09;100.00
9289;BME280;4683;50.864;12.086;2022-12-29T03:27:56;98330.03;;;10.23;100.00
9289;BME280;4683;50.864;12.086;2022-12-29T03:30:28;98333.94;;;10.27;100.00
9289;BME280;4683;50.864;12.086;2022-12-29T03:33:00;98337.31;;;10.21;100.00
9289;BME280;4683;50.864;12.086;2022-12-29T03:35:33;98332.25;;;10.20;100.00
9289;BME280;4683;50.864;12.086;2022-12-29T03:38:16;98342.59;;;10.21;100.00
9289;BME280;4683;50.864;12.086;2022-12-29T03:40:49;98344.50;;;10.27;100.00
9289;BME280;4683;50.864;12.086;2022-12-29T03:43:18;98341.22;;;10.25;100.00
9289;BME280;4683;50.864;12.086;2022-12-29T03:45:50;98343.69;;;10.33;100.00
9289;BME280;4683;50.864;12.086;2022-12-29T03:48:19;98348.16;;;10.39;100.00
9289;BME280;4683;50.864;12.086;2022-12-29T03:50:47;98350.41;;;10.43;100.00
9289;BME280;4683;50.864;12.086;2022-12-29T03:53:17;98351.66;;;10.47;100.00
9289;BME280;4683;50.864;12.086;2022-12-29T03:55:46;98359.19;;;10.50;100.00
9289;BME280;4683;50.864;12.086;2022-12-29T03:58:16;98359.56;;;10.47;100.00
9289;BME280;4683;50.864;12.086;2022-12-29T04:00:44;98353.28;;;10.48;100.00
9289;BME280;4683;50.864;12.086;2022-12-29T04:03:14;98347.03;;;10.55;100.00
9289;BME280;4683;50.864;12.086;2022-12-29T04:05:42;98343.78;;;10.60;100.00
9289;BME280;4683;50.864;12.086;2022-12-29T04:08:11;98352.72;;;10.65;100.00
9289;BME280;4683;50.864;12.086;2022-12-29T04:10:41;98348.25;;;10.66;100.00
9289;BME280;4683;50.864;12.086;2022-12-29T04:13:10;98349.75;;;10.82;100.00
9289;BME280;4683;50.864;12.086;2022-12-29T04:15:38;98346.03;;;10.76;100.00
9289;BME280;4683;50.864;12.086;2022-12-29T04:18:08;98347.88;;;10.76;100.00
9289;BME280;4683;50.864;12.086;2022-12-29T04:20:36;98349.88;;;10.67;100.00
9289;BME280;4683;50.864;12.086;2022-12-29T04:23:30;98333.25;;;10.66;100.00
9289;BME280;4683;50.864;12.086;2022-12-29T04:26:00;98333.47;;;10.85;100.00
9289;BME280;4683;50.864;12.086;2022-12-29T04:28:30;98337.31;;;10.69;100.00
9289;BME280;4683;50.864;12.086;2022-12-29T04:30:59;98321.09;;;10.85;100.00
9289;BME280;4683;50.864;12.086;2022-12-29T04:33:27;98321.31;;;10.84;100.00
9289;BME280;4683;50.864;12.086;2022-12-29T04:35:56;98318.84;;;10.69;100.00
9289;BME280;4683;50.864;12.086;2022-12-29T04:38:25;98320.50;;;10.83;100.00
9289;BME280;4683;50.864;12.086;2022-12-29T04:40:54;98312.19;;;10.86;100.00
9289;BME280;4683;50.864;12.086;2022-12-29T04:43:24;98322.91;;;10.65;100.00
9289;BME280;4683;50.864;12.086;2022-12-29T04:45:53;98313.41;;;10.77;100.00
9289;BME280;4683;50.864;12.086;2022-12-29T04:48:22;98321.50;;;10.76;100.00
9289;BME280;4683;50.864;12.086;2022-12-29T04:50:50;98326.97;;;10.74;100.00
9289;BME280;4683;50.864;12.086;2022-12-29T04:53:19;98322.34;;;10.83;100.00
9289;BME280;4683;50.864;12.086;2022-12-29T04:55:50;98328.84;;;10.93;100.00
9289;BME280;4683;50.864;12.086;2022-12-29T04:58:26;98329.47;;;10.96;100.00
9289;BME280;4683;50.864;12.086;2022-12-29T05:00:54;98332.91;;;11.03;100.00
9289;BME280;4683;50.864;12.086;2022-12-29T05:03:23;98333.72;;;10.97;100.00
9289;BME280;4683;50.864;12.086;2022-12-29T05:05:54;98338.19;;;11.03;100.00
9289;BME280;4683;50.864;12.086;2022-12-29T05:08:23;98330.91;;;11.05;100.00
9289;BME280;4683;50.864;12.086;2022-12-29T05:10:51;98327.84;;;10.95;100.00
9289;BME280;4683;50.864;12.086;2022-12-29T05:13:25;98332.09;;;10.96;100.00
9289;BME280;4683;50.864;12.086;2022-12-29T05:15:54;98322.16;;;10.91;100.00
9289;BME280;4683;50.864;12.086;2022-12-29T05:18:22;98326.81;;;10.89;100.00
9289;BME280;4683;50.864;12.086;2022-12-29T05:20:51;98312.81;;;10.82;100.00
9289;BME280;4683;50.864;12.086;2022-12-29T05:23:20;98309.75;;;10.78;100.00
9289;BME280;4683;50.864;12.086;2022-12-29T05:25:51;98310.75;;;10.77;100.00
9289;BME280;4683;50.864;12.086;2022-12-29T05:28:19;98318.25;;;10.80;100.00
9289;BME280;4683;50.864;12.086;2022-12-29T05:30:50;98322.31;;;10.76;100.00
9289;BME280;4683;50.864;12.086;2022-12-29T05:33:19;98327.75;;;10.55;100.00
9289;BME280;4683;50.864;12.086;2022-12-29T05:35:57;98320.09;;;10.73;100.00
9289;BME280;4683;50.864;12.086;2022-12-29T05:38:31;98323.31;;;10.69;100.00
9289;BME280;4683;50.864;12.086;2022-12-29T05:40:59;98316.22;;;10.69;100.00
9289;BME280;4683;50.864;12.086;2022-12-29T05:43:28;98325.16;;;10.75;100.00
9289;BME280;4683;50.864;12.086;2022-12-29T05:45:58;98305.28;;;10.72;100.00
9289;BME280;4683;50.864;12.086;2022-12-29T05:48:28;98308.53;;;10.94;100.00
9289;BME280;4683;50.864;12.086;2022-12-29T05:50:57;98304.47;;;10.78;100.00
9289;BME280;4683;50.864;12.086;2022-12-29T05:53:27;98310.75;;;10.77;100.00
9289;BME280;4683;50.864;12.086;2022-12-29T05:55:55;98303.66;;;10.84;100.00
9289;BME280;4683;50.864;12.086;2022-12-29T05:58:24;98305.28;;;10.85;100.00
9289;BME280;4683;50.864;12.086;2022-12-29T06:00:52;98300.81;;;10.79;100.00
9289;BME280;4683;50.864;12.086;2022-12-29T06:03:22;98300.00;;;10.85;100.00
9289;BME280;4683;50.864;12.086;2022-12-29T06:05:50;98293.91;;;10.85;100.00
9289;BME280;4683;50.864;12.086;2022-12-29T06:08:19;98283.78;;;10.88;100.00
9289;BME280;4683;50.864;12.086;2022-12-29T06:10:47;98283.34;;;10.85;100.00
9289;BME280;4683;50.864;12.086;2022-12-29T06:13:16;98284.19;;;10.92;100.00
9289;BME280;4683;50.864;12.086;2022-12-29T06:15:47;98285.00;;;10.86;100.00
9289;BME280;4683;50.864;12.086;2022-12-29T06:18:16;98284.59;;;10.82;100.00
9289;BME280;4683;50.864;12.086;2022-12-29T06:20:46;98282.56;;;10.84;100.00
9289;BME280;4683;50.864;12.086;2022-12-29T06:23:15;98272.03;;;10.91;100.00
9289;BME280;4683;50.864;12.086;2022-12-29T06:25:46;98262.25;;;10.98;100.00
9289;BME280;4683;50.864;12.086;2022-12-29T06:28:16;98257.59;;;11.07;100.00
9289;BME280;4683;50.864;12.086;2022-12-29T06:30:46;98260.06;;;11.08;100.00
9289;BME280;4683;50.864;12.086;2022-12-29T06:33:15;98253.13;;;11.07;100.00
9289;BME280;4683;50.864;12.086;2022-12-29T06:35:46;98251.72;;;11.05;100.00
9289;BME280;4683;50.864;12.086;2022-12-29T06:38:14;98256.19;;;11.11;100.00
9289;BME280;4683;50.864;12.086;2022-12-29T06:40:43;98262.06;;;11.13;100.00
9289;BME280;4683;50.864;12.086;2022-12-29T06:43:12;98262.47;;;11.10;100.00
9289;BME280;4683;50.864;12.086;2022-12-29T06:45:41;98264.28;;;11.03;100.00
9289;BME280;4683;50.864;12.086;2022-12-29T06:48:10;98266.53;;;11.12;100.00
9289;BME280;4683;50.864;12.086;2022-12-29T06:50:38;98257.59;;;11.20;100.00
9289;BME280;4683;50.864;12.086;2022-12-29T06:53:08;98265.91;;;11.17;100.00
9289;BME280;4683;50.864;12.086;2022-12-29T06:55:37;98269.16;;;11.12;100.00
9289;BME280;4683;50.864;12.086;2022-12-29T06:58:05;98275.25;;;11.20;100.00
9289;BME280;4683;50.864;12.086;2022-12-29T07:00:34;98268.78;;;11.22;100.00
9289;BME280;4683;50.864;12.086;2022-12-29T07:03:03;98274.25;;;11.27;100.00
9289;BME280;4683;50.864;12.086;2022-12-29T07:05:32;98263.84;;;11.39;100.00
9289;BME280;4683;50.864;12.086;2022-12-29T07:08:01;98275.22;;;11.39;100.00
9289;BME280;4683;50.864;12.086;2022-12-29T07:10:31;98275.25;;;11.46;100.00
9289;BME280;4683;50.864;12.086;2022-12-29T07:12:59;98271.16;;;11.50;100.00
9289;BME280;4683;50.864;12.086;2022-12-29T07:15:27;98277.44;;;11.56;100.00
9289;BME280;4683;50.864;12.086;2022-12-29T07:17:56;98280.13;;;11.49;100.00
9289;BME280;4683;50.864;12.086;2022-12-29T07:20:24;98287.81;;;11.57;100.00
9289;BME280;4683;50.864;12.086;2022-12-29T07:22:53;98290.25;;;11.52;100.00
9289;BME280;4683;50.864;12.086;2022-12-29T07:25:21;98291.88;;;11.60;100.00
9289;BME280;4683;50.864;12.086;2022-12-29T07:27:51;98278.66;;;11.60;100.00
9289;BME280;4683;50.864;12.086;2022-12-29T07:30:19;98292.50;;;11.55;100.00
9289;BME280;4683;50.864;12.086;2022-12-29T07:32:48;98289.44;;;11.58;100.00
9289;BME280;4683;50.864;12.086;2022-12-29T07:35:17;98293.09;;;11.57;100.00
9289;BME280;4683;50.864;12.086;2022-12-29T07:37:45;98295.91;;;11.69;100.00
9289;BME280;4683;50.864;12.086;2022-12-29T07:40:13;98290.59;;;11.76;100.00
9289;BME280;4683;50.864;12.086;2022-12-29T07:42:44;98298.56;;;11.69;100.00
9289;BME280;4683;50.864;12.086;2022-12-29T07:45:13;98293.66;;;11.79;100.00
9289;BME280;4683;50.864;12.086;2022-12-29T07:47:42;98296.50;;;11.84;100.00
9289;BME280;4683;50.864;12.086;2022-12-29T07:50:16;98300.78;;;11.79;100.00
9289;BME280;4683;50.864;12.086;2022-12-29T07:52:44;98303.19;;;11.93;100.00
9289;BME280;4683;50.864;12.086;2022-12-29T07:55:14;98304.44;;;11.84;100.00
9289;BME280;4683;50.864;12.086;2022-12-29T07:57:43;98308.50;;;11.87;100.00
9289;BME280;4683;50.864;12.086;2022-12-29T08:00:15;98300.38;;;11.88;100.00
9289;BME280;4683;50.864;12.086;2022-12-29T08:02:43;98303.63;;;11.90;100.00
9289;BME280;4683;50.864;12.086;2022-12-29T08:05:12;98320.88;;;11.93;100.00
9289;BME280;4683;50.864;12.086;2022-12-29T08:07:43;98318.66;;;11.97;100.00
9289;BME280;4683;50.864;12.086;2022-12-29T08:10:12;98314.38;;;11.89;100.00
9289;BME280;4683;50.864;12.086;2022-12-29T08:12:42;98310.13;;;11.95;100.00
9289;BME280;4683;50.864;12.086;2022-12-29T08:15:11;98307.47;;;11.95;100.00
9289;BME280;4683;50.864;12.086;2022-12-29T08:17:41;98309.31;;;11.87;100.00
9289;BME280;4683;50.864;12.086;2022-12-29T08:20:10;98311.31;;;11.99;100.00
9289;BME280;4683;50.864;12.086;2022-12-29T08:22:39;98309.28;;;12.01;100.00
9289;BME280;4683;50.864;12.086;2022-12-29T08:25:09;98305.78;;;12.13;100.00
9289;BME280;4683;50.864;12.086;2022-12-29T08:27:37;98320.25;;;11.98;100.00
9289;BME280;4683;50.864;12.086;2022-12-29T08:30:07;98317.44;;;11.99;100.00
9289;BME280;4683;50.864;12.086;2022-12-29T08:32:36;98318.69;;;11.90;100.00
9289;BME280;4683;50.864;12.086;2022-12-29T08:35:07;98318.59;;;12.10;100.00
9289;BME280;4683;50.864;12.086;2022-12-29T08:37:35;98314.16;;;12.04;100.00
9289;BME280;4683;50.864;12.086;2022-12-29T08:40:06;98312.16;;;11.92;100.00
9289;BME280;4683;50.864;12.086;2022-12-29T08:42:35;98316.81;;;12.04;100.00
9289;BME280;4683;50.864;12.086;2022-12-29T08:45:05;98300.50;;;12.13;100.00
9289;BME280;4683;50.864;12.086;2022-12-29T08:47:36;98313.72;;;12.07;100.00
9289;BME280;4683;50.864;12.086;2022-12-29T08:50:07;98310.31;;;12.00;100.00
9289;BME280;4683;50.864;12.086;2022-12-29T08:52:36;98305.22;;;12.05;100.00
9289;BME280;4683;50.864;12.086;2022-12-29T08:55:05;98312.34;;;11.98;100.00
9289;BME280;4683;50.864;12.086;2022-12-29T08:57:33;98306.38;;;12.22;100.00
9289;BME280;4683;50.864;12.086;2022-12-29T09:00:04;98304.31;;;12.24;100.00
9289;BME280;4683;50.864;12.086;2022-12-29T09:02:33;98308.97;;;12.35;100.00
9289;BME280;4683;50.864;12.086;2022-12-29T09:05:01;98309.13;;;12.40;100.00
9289;BME280;4683;50.864;12.086;2022-12-29T09:07:31;98305.69;;;12.33;100.00
9289;BME280;4683;50.864;12.086;2022-12-29T09:09:59;98309.78;;;12.29;100.00
9289;BME280;4683;50.864;12.086;2022-12-29T09:12:30;98289.25;;;12.31;100.00
9289;BME280;4683;50.864;12.086;2022-12-29T09:14:58;98289.25;;;12.25;100.00
9289;BME280;4683;50.864;12.086;2022-12-29T09:17:27;98290.34;;;12.49;100.00
9289;BME280;4683;50.864;12.086;2022-12-29T09:20:15;98292.41;;;12.47;100.00
9289;BME280;4683;50.864;12.086;2022-12-29T09:22:47;98283.88;;;12.44;100.00
9289;BME280;4683;50.864;12.086;2022-12-29T09:25:17;98267.25;;;12.69;100.00
9289;BME280;4683;50.864;12.086;2022-12-29T09:27:46;98282.44;;;12.80;100.00
9289;BME280;4683;50.864;12.086;2022-12-29T09:30:15;98290.91;;;12.64;100.00
9289;BME280;4683;50.864;12.086;2022-12-29T09:32:43;98291.66;;;12.71;100.00
9289;BME280;4683;50.864;12.086;2022-12-29T09:35:11;98301.47;;;12.95;100.00
9289;BME280;4683;50.864;12.086;2022-12-29T09:37:39;98280.34;;;12.89;100.00
9289;BME280;4683;50.864;12.086;2022-12-29T09:40:26;98291.63;;;12.78;100.00
9289;BME280;4683;50.864;12.086;2022-12-29T09:43:22;98296.94;;;12.71;100.00
9289;BME280;4683;50.864;12.086;2022-12-29T09:45:59;98293.47;;;12.70;100.00
9289;BME280;4683;50.864;12.086;2022-12-29T09:48:37;98291.22;;;12.74;100.00
9289;BME280;4683;50.864;12.086;2022-12-29T09:51:11;98286.72;;;12.81;100.00
9289;BME280;4683;50.864;12.086;2022-12-29T09:53:43;98275.75;;;13.03;100.00
9289;BME280;4683;50.864;12.086;2022-12-29T09:56:17;98283.97;;;12.94;100.00
9289;BME280;4683;50.864;12.086;2022-12-29T09:58:53;98279.44;;;13.02;100.00
9289;BME280;4683;50.864;12.086;2022-12-29T10:01:29;98285.91;;;13.06;100.00
9289;BME280;4683;50.864;12.086;2022-12-29T10:04:00;98283.00;;;13.14;100.00
9289;BME280;4683;50.864;12.086;2022-12-29T10:06:37;98272.34;;;12.95;100.00
9289;BME280;4683;50.864;12.086;2022-12-29T10:09:15;98271.91;;;12.99;100.00
9289;BME280;4683;50.864;12.086;2022-12-29T10:12:03;98272.78;;;12.92;100.00
9289;BME280;4683;50.864;12.086;2022-12-29T10:14:52;98263.78;;;13.00;100.00
9289;BME280;4683;50.864;12.086;2022-12-29T10:17:30;98270.53;;;12.96;100.00
9289;BME280;4683;50.864;12.086;2022-12-29T10:20:27;98261.59;;;12.90;100.00
9289;BME280;4683;50.864;12.086;2022-12-29T10:23:16;98271.88;;;13.05;100.00
9289;BME280;4683;50.864;12.086;2022-12-29T10:25:49;98276.09;;;13.13;100.00
9289;BME280;4683;50.864;12.086;2022-12-29T10:28:23;98280.19;;;13.09;100.00
9289;BME280;4683;50.864;12.086;2022-12-29T10:30:53;98261.75;;;13.27;100.00
9289;BME280;4683;50.864;12.086;2022-12-29T10:33:34;98269.38;;;13.10;100.00
9289;BME280;4683;50.864;12.086;2022-12-29T10:36:15;98278.44;;;13.21;100.00
9289;BME280;4683;50.864;12.086;2022-12-29T10:38:54;98279.13;;;13.41;100.00
9289;BME280;4683;50.864;12.086;2022-12-29T10:41:38;98275.63;;;13.23;100.00
9289;BME280;4683;50.864;12.086;2022-12-29T10:44:14;98275.56;;;13.29;100.00
9289;BME280;4683;50.864;12.086;2022-12-29T10:46:55;98270.34;;;13.23;100.00
9289;BME280;4683;50.864;12.086;2022-12-29T10:49:26;98278.13;;;13.11;100.00
9289;BME280;4683;50.864;12.086;2022-12-29T10:51:58;98274.38;;;13.25;100.00
9289;BME280;4683;50.864;12.086;2022-12-29T10:54:32;98270.97;;;13.18;100.00
9289;BME280;4683;50.864;12.086;2022-12-29T10:57:05;98285.19;;;13.24;100.00
9289;BME280;4683;50.864;12.086;2022-12-29T10:59:39;98288.97;;;13.34;100.00
9289;BME280;4683;50.864;12.086;2022-12-29T11:02:44;98303.75;;;13.17;100.00
9289;BME280;4683;50.864;12.086;2022-12-29T11:05:25;98292.91;;;13.25;100.00
9289;BME280;4683;50.864;12.086;2022-12-29T11:08:01;98285.66;;;13.14;100.00
9289;BME280;4683;50.864;12.086;2022-12-29T11:10:36;98300.09;;;13.18;100.00
9289;BME280;4683;50.864;12.086;2022-12-29T11:13:13;98291.31;;;13.24;100.00
9289;BME280;4683;50.864;12.086;2022-12-29T11:15:47;98289.19;;;13.33;100.00
9289;BME280;4683;50.864;12.086;2022-12-29T11:18:22;98298.63;;;13.47;100.00
9289;BME280;4683;50.864;12.086;2022-12-29T11:20:54;98281.56;;;13.43;100.00
9289;BME280;4683;50.864;12.086;2022-12-29T11:23:31;98291.03;;;13.32;100.00
9289;BME280;4683;50.864;12.086;2022-12-29T11:26:17;98285.31;;;13.35;100.00
9289;BME280;4683;50.864;12.086;2022-12-29T11:31:50;98291.94;;;13.44;100.00
9289;BME280;4683;50.864;12.086;2022-12-29T11:34:22;98286.13;;;13.36;100.00
9289;BME280;4683;50.864;12.086;2022-12-29T11:36:57;98285.00;;;13.43;100.00
9289;BME280;4683;50.864;12.086;2022-12-29T11:39:32;98291.66;;;13.53;100.00
9289;BME280;4683;50.864;12.086;2022-12-29T11:42:02;98282.34;;;13.43;100.00
9289;BME280;4683;50.864;12.086;2022-12-29T11:44:36;98270.97;;;13.43;100.00
9289;BME280;4683;50.864;12.086;2022-12-29T11:47:12;98276.63;;;13.47;100.00
9289;BME280;4683;50.864;12.086;2022-12-29T11:49:41;98281.50;;;13.50;100.00
9289;BME280;4683;50.864;12.086;2022-12-29T11:52:09;98290.03;;;13.52;100.00
9289;BME280;4683;50.864;12.086;2022-12-29T11:54:38;98286.34;;;13.53;100.00
9289;BME280;4683;50.864;12.086;2022-12-29T11:57:12;98284.47;;;13.60;100.00
9289;BME280;4683;50.864;12.086;2022-12-29T11:59:46;98285.63;;;13.64;100.00
9289;BME280;4683;50.864;12.086;2022-12-29T12:02:39;98284.69;;;13.58;100.00
9289;BME280;4683;50.864;12.086;2022-12-29T12:05:24;98291.19;;;13.37;100.00
9289;BME280;4683;50.864;12.086;2022-12-29T12:08:01;98285.34;;;13.54;100.00
9289;BME280;4683;50.864;12.086;2022-12-29T12:10:36;98272.38;;;13.64;100.00
9289;BME280;4683;50.864;12.086;2022-12-29T12:13:18;98267.53;;;13.61;100.00
9289;BME280;4683;50.864;12.086;2022-12-29T12:15:54;98267.09;;;13.64;100.00
9289;BME280;4683;50.864;12.086;2022-12-29T12:18:34;98260.59;;;13.60;100.00
9289;BME280;4683;50.864;12.086;2022-12-29T12:21:13;98252.13;;;13.51;100.00
9289;BME280;4683;50.864;12.086;2022-12-29T12:24:19;98256.34;;;13.59;100.00
9289;BME280;4683;50.864;12.086;2022-12-29T12:26:58;98256.19;;;13.54;100.00
9289;BME280;4683;50.864;12.086;2022-12-29T12:29:36;98259.56;;;13.61;100.00
9289;BME280;4683;50.864;12.086;2022-12-29T12:32:15;98256.13;;;13.60;100.00
9289;BME280;4683;50.864;12.086;2022-12-29T12:34:48;98249.63;;;13.56;100.00
9289;BME280;4683;50.864;12.086;2022-12-29T12:37:55;98254.63;;;13.46;100.00
9289;BME280;4683;50.864;12.086;2022-12-29T12:40:40;98261.13;;;13.50;100.00
9289;BME280;4683;50.864;12.086;2022-12-29T12:46:58;98247.75;;;13.38;100.00
9289;BME280;4683;50.864;12.086;2022-12-29T12:50:14;98248.94;;;13.42;100.00
9289;BME280;4683;50.864;12.086;2022-12-29T12:53:12;98250.00;;;13.60;100.00
9289;BME280;4683;50.864;12.086;2022-12-29T12:56:08;98247.34;;;13.41;100.00
9289;BME280;4683;50.864;12.086;2022-12-29T12:58:48;98247.94;;;13.62;100.00
9289;BME280;4683;50.864;12.086;2022-12-29T13:01:31;98249.19;;;13.78;100.00
9289;BME280;4683;50.864;12.086;2022-12-29T13:04:26;98246.53;;;13.59;100.00
9289;BME280;4683;50.864;12.086;2022-12-29T13:07:07;98250.81;;;13.60;100.00
9289;BME280;4683;50.864;12.086;2022-12-29T13:09:57;98249.72;;;13.50;100.00
9289;BME280;4683;50.864;12.086;2022-12-29T13:12:36;98261.53;;;13.47;100.00
9289;BME280;4683;50.864;12.086;2022-12-29T13:15:21;98262.63;;;13.39;100.00
9289;BME280;4683;50.864;12.086;2022-12-29T13:17:59;98272.78;;;13.42;100.00
9289;BME280;4683;50.864;12.086;2022-12-29T13:20:36;98268.00;;;13.33;100.00
9289;BME280;4683;50.864;12.086;2022-12-29T13:23:18;98273.22;;;13.39;100.00
9289;BME280;4683;50.864;12.086;2022-12-29T13:25:55;98277.38;;;13.35;100.00
9289;BME280;4683;50.864;12.086;2022-12-29T13:28:32;98275.94;;;13.33;100.00
9289;BME280;4683;50.864;12.086;2022-12-29T13:31:11;98295.44;;;13.38;100.00
9289;BME280;4683;50.864;12.086;2022-12-29T13:33:47;98310.41;;;13.26;100.00
9289;BME280;4683;50.864;12.086;2022-12-29T13:36:24;98303.63;;;13.37;100.00
9289;BME280;4683;50.864;12.086;2022-12-29T13:39:04;98294.34;;;13.21;100.00
9289;BME280;4683;50.864;12.086;2022-12-29T13:41:39;98285.78;;;13.26;100.00
9289;BME280;4683;50.864;12.086;2022-12-29T13:44:17;98289.22;;;13.26;100.00
9289;BME280;4683;50.864;12.086;2022-12-29T13:46:48;98285.50;;;13.09;100.00
9289;BME280;4683;50.864;12.086;2022-12-29T13:49:21;98281.66;;;13.05;100.00
9289;BME280;4683;50.864;12.086;2022-12-29T13:51:54;98279.53;;;12.88;100.00
9289;BME280;4683;50.864;12.086;2022-12-29T13:54:35;98285.78;;;12.94;100.00
9289;BME280;4683;50.864;12.086;2022-12-29T13:57:13;98284.06;;;12.81;100.00